Search for airport 
image banner adimage banner adimage banner ad
image banner ad

KVIS - Visalia Muni

Located in Visalia, United States

ICAO - VIS, IATA - VIS

Data provided by Airmate  

General information

Coordinates: N36°19'7" W119°23'34"
Elevation is 295 feet MSL.
Magnetic variation is 14° East
View others Airports in California

Operational data

Special qualification required
Current time UTC:
Current local time:
Weather
METAR: KVIS 150856Z AUTO 31012KT 10SM CLR 21/08 A2998 RMK AO2 SLP156 T02110083 53012
TAF: KVIS 150530Z 1506/1606 30011G21KT P6SM SKC FM151400 30006KT P6SM SCT250
View NOTAMs / SUP AIP / TFR affecting this airport [VIEW]
Communications frequencies: [VIEW]

Runways:

RWY identifierQFULength (ft)Width (ft)SurfaceLDA (ft)
12135°6562150ASPH5635
30315°6562150ASPH5635

Airport contact information

Address: Visalia United States

Satellite view of KVIS